Time;durP1;ratioP1;P1;durP2;ratioP2;P2;SDS_P1;SDS_P2;PMS_P1;PMS_P2;Temp;Humidity;BMP_temperature;BMP_pressure;BME280_temperature;BME280_humidity;BME280_pressure;Samples;Min_cycle;Max_cycle;Signal;HPM_P1;HPM_P2
2022/08/13 00:00:31;;;;;;;10.50;5.60;;;;;;;;;;4962611;28;21692;-76
2022/08/13 00:02:57;;;;;;;17.48;6.05;;;;;;;;;;4947396;28;20077;-76
2022/08/13 00:05:24;;;;;;;12.23;5.43;;;;;;;;;;4963545;28;20058;-77
2022/08/13 00:07:51;;;;;;;15.82;5.55;;;;;;;;;;4966546;28;20062;-76
2022/08/13 00:10:30;;;;;;;14.63;5.30;;;;;;;;;;4943081;28;20057;-76
2022/08/13 00:12:56;;;;;;;9.60;4.90;;;;;;;;;;4961512;28;20063;-76
2022/08/13 00:15:33;;;;;;;10.25;5.20;;;;;;;;;;4962933;28;20035;-77
2022/08/13 00:18:02;;;;;;;8.00;4.80;;;;;;;;;;4967294;28;20129;-74
2022/08/13 00:20:29;;;;;;;7.40;4.80;;;;;;;;;;4950816;28;20046;-75
2022/08/13 00:22:58;;;;;;;5.43;4.32;;;;;;;;;;5031911;28;20743;-75
2022/08/13 00:25:24;;;;;;;8.32;4.60;;;;;;;;;;4966675;28;20110;-77
2022/08/13 00:27:56;;;;;;;10.15;5.13;;;;;;;;;;5034486;28;20054;-75
2022/08/13 00:30:23;;;;;;;8.10;4.88;;;;;;;;;;4968811;28;20095;-76
2022/08/13 00:32:49;;;;;;;12.32;5.18;;;;;;;;;;5033689;28;20599;-75
2022/08/13 00:35:18;;;;;;;9.93;5.53;;;;;;;;;;4963692;28;20085;-76
2022/08/13 00:37:44;;;;;;;10.07;5.28;;;;;;;;;;4967693;28;20063;-76
2022/08/13 00:40:11;;;;;;;11.77;5.03;;;;;;;;;;4965267;28;20066;-75
2022/08/13 00:42:40;;;;;;;10.23;5.00;;;;;;;;;;4953155;28;20106;-75
2022/08/13 00:45:07;;;;;;;11.65;5.30;;;;;;;;;;4962385;28;20099;-76
2022/08/13 00:50:18;;;;;;;12.75;4.97;;;;;;;;;;4965851;28;20113;-75
2022/08/13 00:52:44;;;;;;;8.15;4.93;;;;;;;;;;4952009;28;20039;-76
2022/08/13 00:55:17;;;;;;;6.80;5.07;;;;;;;;;;4965491;28;20039;-75
2022/08/13 00:57:44;;;;;;;11.13;5.25;;;;;;;;;;4965104;28;20046;-75
2022/08/13 01:00:13;;;;;;;15.88;5.22;;;;;;;;;;4961530;28;20027;-75
2022/08/13 01:02:47;;;;;;;12.63;5.22;;;;;;;;;;4967110;28;20073;-77
2022/08/13 01:05:13;;;;;;;14.38;5.68;;;;;;;;;;5047359;28;20041;-76
2022/08/13 01:07:43;;;;;;;8.68;5.53;;;;;;;;;;5049297;28;20017;-76
2022/08/13 01:10:10;;;;;;;12.63;6.03;;;;;;;;;;5047196;28;20040;-76
2022/08/13 01:12:37;;;;;;;6.40;4.95;;;;;;;;;;5046902;28;20126;-76
2022/08/13 01:15:04;;;;;;;11.73;5.20;;;;;;;;;;5044823;28;20394;-75
2022/08/13 01:17:31;;;;;;;11.98;5.43;;;;;;;;;;5053309;28;20513;-76
2022/08/13 01:19:57;;;;;;;8.23;5.13;;;;;;;;;;5047174;28;20051;-76
2022/08/13 01:22:24;;;;;;;7.85;5.43;;;;;;;;;;5047900;28;20025;-76
2022/08/13 01:24:51;;;;;;;16.30;5.22;;;;;;;;;;5048924;28;20031;-76
2022/08/13 01:27:21;;;;;;;11.05;4.90;;;;;;;;;;5048933;28;20104;-76
2022/08/13 01:29:48;;;;;;;8.30;4.80;;;;;;;;;;5043183;28;20052;-76
2022/08/13 01:32:15;;;;;;;8.27;4.60;;;;;;;;;;5057742;28;20091;-76
2022/08/13 01:34:42;;;;;;;9.13;5.03;;;;;;;;;;5047084;28;20082;-76
2022/08/13 01:37:09;;;;;;;11.63;4.97;;;;;;;;;;5046454;28;20053;-76
2022/08/13 01:39:35;;;;;;;8.57;4.95;;;;;;;;;;5048055;28;20041;-76
2022/08/13 01:42:01;;;;;;;11.43;4.72;;;;;;;;;;5052898;28;20083;-75
2022/08/13 01:44:31;;;;;;;11.35;4.97;;;;;;;;;;5046156;28;20029;-75
2022/08/13 01:52:34;;;;;;;9.77;4.90;;;;;;;;;;5047274;28;20075;-75
2022/08/13 01:55:01;;;;;;;7.55;4.65;;;;;;;;;;5048768;28;20629;-75
2022/08/13 01:57:27;;;;;;;6.93;4.80;;;;;;;;;;5046523;28;20059;-76
2022/08/13 01:59:53;;;;;;;11.48;4.97;;;;;;;;;;5060769;28;20056;-75
2022/08/13 02:02:23;;;;;;;8.90;5.07;;;;;;;;;;5046447;28;20502;-76
2022/08/13 02:04:49;;;;;;;13.43;5.32;;;;;;;;;;5034002;28;20054;-75
2022/08/13 02:07:15;;;;;;;9.02;5.35;;;;;;;;;;4931451;28;20414;-76
2022/08/13 02:09:43;;;;;;;11.27;4.90;;;;;;;;;;4950290;28;20117;-76
2022/08/13 02:12:13;;;;;;;11.57;5.55;;;;;;;;;;4952633;28;20038;-76
2022/08/13 02:14:42;;;;;;;6.38;5.25;;;;;;;;;;4950727;28;20059;-74
2022/08/13 02:17:24;;;;;;;7.50;4.78;;;;;;;;;;4962316;28;20049;-75
2022/08/13 02:19:51;;;;;;;15.70;4.88;;;;;;;;;;4960509;28;20049;-75
2022/08/13 02:22:17;;;;;;;10.95;5.50;;;;;;;;;;5029342;28;20035;-76
2022/08/13 02:24:48;;;;;;;12.27;4.95;;;;;;;;;;4957740;28;20066;-75
2022/08/13 02:27:15;;;;;;;7.15;5.28;;;;;;;;;;4965060;28;20468;-76
2022/08/13 02:29:44;;;;;;;11.15;5.22;;;;;;;;;;4964598;28;20491;-76
2022/08/13 02:32:10;;;;;;;17.83;5.20;;;;;;;;;;4964830;28;20034;-76
2022/08/13 02:34:38;;;;;;;12.13;5.97;;;;;;;;;;4950477;28;20066;-75
2022/08/13 02:37:04;;;;;;;5.88;5.00;;;;;;;;;;4967970;28;20035;-76
2022/08/13 02:39:31;;;;;;;8.00;5.30;;;;;;;;;;4951584;28;20121;-76
2022/08/13 02:41:57;;;;;;;8.73;5.55;;;;;;;;;;4957506;28;20038;-75
2022/08/13 02:44:25;;;;;;;8.75;5.30;;;;;;;;;;4964132;28;20054;-76
2022/08/13 02:46:51;;;;;;;9.93;5.13;;;;;;;;;;4963185;28;20440;-76
2022/08/13 02:49:21;;;;;;;10.88;5.00;;;;;;;;;;4962794;28;20034;-76
2022/08/13 02:51:47;;;;;;;7.60;5.28;;;;;;;;;;4959077;28;20118;-77
2022/08/13 02:54:16;;;;;;;12.40;5.65;;;;;;;;;;4964858;28;20034;-76
2022/08/13 02:56:43;;;;;;;9.55;4.95;;;;;;;;;;4951135;28;20035;-76
2022/08/13 02:59:10;;;;;;;9.98;5.57;;;;;;;;;;4952198;28;20491;-77
2022/08/13 03:01:38;;;;;;;7.90;5.45;;;;;;;;;;4962217;28;20034;-76
2022/08/13 03:04:05;;;;;;;8.43;5.28;;;;;;;;;;4965327;28;20114;-75
2022/08/13 03:06:31;;;;;;;12.20;5.68;;;;;;;;;;4961867;28;20045;-76
2022/08/13 03:09:01;;;;;;;8.27;5.55;;;;;;;;;;4962231;28;20039;-75
2022/08/13 03:11:28;;;;;;;14.02;5.80;;;;;;;;;;4949802;28;20445;-76
2022/08/13 03:13:57;;;;;;;6.80;5.43;;;;;;;;;;5031573;28;20384;-75
2022/08/13 03:16:24;;;;;;;8.85;5.75;;;;;;;;;;4964582;28;20153;-76
2022/08/13 03:18:53;;;;;;;16.38;7.00;;;;;;;;;;4967805;28;20109;-76
2022/08/13 03:21:20;;;;;;;7.50;5.20;;;;;;;;;;4965971;28;20113;-81
2022/08/13 03:23:46;;;;;;;17.55;5.78;;;;;;;;;;4966761;28;20054;-77
2022/08/13 03:26:12;;;;;;;7.68;5.55;;;;;;;;;;4954026;28;20035;-76
2022/08/13 03:28:39;;;;;;;10.48;5.20;;;;;;;;;;4960548;28;20121;-76
2022/08/13 03:31:05;;;;;;;19.33;6.13;;;;;;;;;;4961728;28;20035;-76
2022/08/13 03:33:32;;;;;;;16.63;6.45;;;;;;;;;;4962459;28;20080;-76
2022/08/13 03:35:58;;;;;;;15.43;5.78;;;;;;;;;;4952243;28;20070;-75
2022/08/13 03:38:24;;;;;;;13.60;5.70;;;;;;;;;;4962847;28;20035;-76
2022/08/13 03:41:11;;;;;;;12.35;6.10;;;;;;;;;;5013659;28;20085;-75
2022/08/13 03:43:37;;;;;;;8.98;6.03;;;;;;;;;;4964686;28;20038;-75
2022/08/13 03:46:03;;;;;;;11.00;5.95;;;;;;;;;;4963002;28;20470;-75
2022/08/13 03:48:29;;;;;;;9.70;5.80;;;;;;;;;;4961654;28;20031;-76
2022/08/13 03:50:59;;;;;;;7.40;5.78;;;;;;;;;;4964421;28;20286;-75
2022/08/13 03:53:26;;;;;;;12.18;5.93;;;;;;;;;;4963092;28;20088;-76
2022/08/13 03:55:52;;;;;;;10.25;6.10;;;;;;;;;;5028238;28;20129;-75
2022/08/13 03:58:20;;;;;;;8.77;5.63;;;;;;;;;;4970635;28;20081;-75
2022/08/13 04:00:47;;;;;;;9.40;5.60;;;;;;;;;;4963780;28;20038;-75
2022/08/13 04:03:21;;;;;;;8.20;6.47;;;;;;;;;;4959538;28;20097;-77
2022/08/13 04:05:48;;;;;;;11.55;5.95;;;;;;;;;;5028974;28;20048;-74
2022/08/13 04:08:15;;;;;;;6.53;5.47;;;;;;;;;;4964448;28;20031;-74
2022/08/13 04:10:44;;;;;;;7.88;6.38;;;;;;;;;;4962095;28;20114;-76
2022/08/13 04:13:12;;;;;;;10.15;5.78;;;;;;;;;;4957822;28;20092;-76
2022/08/13 04:15:42;;;;;;;12.02;6.05;;;;;;;;;;4959367;28;20106;-76
2022/08/13 04:18:08;;;;;;;15.53;5.60;;;;;;;;;;4964255;28;20039;-76
2022/08/13 04:20:36;;;;;;;7.22;5.05;;;;;;;;;;4964693;28;20134;-77
2022/08/13 04:23:03;;;;;;;10.45;5.75;;;;;;;;;;4962064;28;20101;-76
2022/08/13 04:25:29;;;;;;;10.18;5.68;;;;;;;;;;4962628;28;20042;-77
2022/08/13 04:27:55;;;;;;;8.43;5.22;;;;;;;;;;4966498;28;20047;-76
2022/08/13 04:30:21;;;;;;;10.18;5.78;;;;;;;;;;4945216;28;20520;-77
2022/08/13 04:32:48;;;;;;;11.30;5.05;;;;;;;;;;4961864;28;20032;-76
2022/08/13 04:35:14;;;;;;;9.13;5.53;;;;;;;;;;4962609;28;20499;-76
2022/08/13 04:37:40;;;;;;;31.65;6.35;;;;;;;;;;4964160;28;20027;-76
2022/08/13 04:40:07;;;;;;;11.27;5.70;;;;;;;;;;4960834;28;20530;-75
2022/08/13 04:42:55;;;;;;;14.95;5.95;;;;;;;;;;4949973;28;20117;-75
2022/08/13 04:45:22;;;;;;;8.02;5.55;;;;;;;;;;4965062;28;20023;-75
2022/08/13 04:47:48;;;;;;;10.20;5.50;;;;;;;;;;4976993;28;20030;-74
2022/08/13 04:50:14;;;;;;;17.00;7.00;;;;;;;;;;4963031;28;20043;-75
2022/08/13 04:52:41;;;;;;;12.15;5.80;;;;;;;;;;4966672;28;20077;-75
2022/08/13 04:55:11;;;;;;;14.15;5.85;;;;;;;;;;4955343;28;20035;-75
2022/08/13 04:57:37;;;;;;;17.35;7.10;;;;;;;;;;4963538;28;20465;-75
2022/08/13 05:00:05;;;;;;;70.95;8.52;;;;;;;;;;4962812;28;20086;-75
2022/08/13 05:02:31;;;;;;;19.90;5.93;;;;;;;;;;4964543;28;20122;-74
2022/08/13 05:04:58;;;;;;;22.55;5.93;;;;;;;;;;4969226;28;20031;-74
2022/08/13 05:07:24;;;;;;;11.93;5.70;;;;;;;;;;4946711;28;20024;-75
2022/08/13 05:09:50;;;;;;;18.42;5.90;;;;;;;;;;4957843;28;20039;-75
2022/08/13 05:12:16;;;;;;;24.27;6.47;;;;;;;;;;5029165;28;20050;-75
2022/08/13 05:14:42;;;;;;;121.63;87.80;;;;;;;;;;5029849;28;20035;-75
2022/08/13 05:17:08;;;;;;;44.47;7.88;;;;;;;;;;5031581;28;20069;-75
2022/08/13 05:19:34;;;;;;;18.17;5.90;;;;;;;;;;4965186;28;20035;-75
2022/08/13 05:22:00;;;;;;;11.63;5.60;;;;;;;;;;4964773;28;20106;-75
2022/08/13 05:24:26;;;;;;;12.55;5.85;;;;;;;;;;4962628;28;20066;-75
2022/08/13 05:26:52;;;;;;;13.50;5.43;;;;;;;;;;5031054;28;20042;-76
2022/08/13 05:29:19;;;;;;;15.95;5.10;;;;;;;;;;4967798;28;20034;-75
2022/08/13 05:31:45;;;;;;;10.32;4.00;;;;;;;;;;4967527;28;20100;-76
2022/08/13 05:34:11;;;;;;;8.90;3.80;;;;;;;;;;4965891;28;20471;-76
2022/08/13 05:36:39;;;;;;;9.85;4.03;;;;;;;;;;4968702;28;20065;-76
2022/08/13 05:39:05;;;;;;;8.80;3.83;;;;;;;;;;4968320;28;20121;-76
2022/08/13 05:41:32;;;;;;;15.10;4.50;;;;;;;;;;4953879;28;20035;-76
2022/08/13 05:43:58;;;;;;;8.60;4.30;;;;;;;;;;4952731;28;20043;-77
2022/08/13 05:46:24;;;;;;;18.13;4.75;;;;;;;;;;4966661;28;20611;-76
2022/08/13 05:48:56;;;;;;;13.63;4.75;;;;;;;;;;4949000;28;20031;-77
2022/08/13 05:51:28;;;;;;;20.63;4.65;;;;;;;;;;4967214;28;20039;-78
2022/08/13 05:53:56;;;;;;;10.40;4.03;;;;;;;;;;4969503;28;20486;-77
2022/08/13 05:56:22;;;;;;;6.63;3.80;;;;;;;;;;4962982;28;20292;-78
2022/08/13 05:58:49;;;;;;;9.65;3.85;;;;;;;;;;4965972;28;20065;-76
2022/08/13 06:04:01;;;;;;;11.52;4.00;;;;;;;;;;4952335;28;20100;-76
2022/08/13 06:06:28;;;;;;;9.18;3.90;;;;;;;;;;4966109;28;20054;-76
2022/08/13 06:08:59;;;;;;;9.68;4.53;;;;;;;;;;4969051;28;20396;-76
2022/08/13 06:11:25;;;;;;;;;;;;;;;;;;4962940;28;20064;-76
2022/08/13 06:13:51;;;;;;;9.95;3.40;;;;;;;;;;4967577;28;20427;-76
2022/08/13 06:16:18;;;;;;;12.00;3.88;;;;;;;;;;4950247;28;20035;-76
2022/08/13 06:18:46;;;;;;;16.15;3.50;;;;;;;;;;4954054;28;20049;-76
2022/08/13 06:21:13;;;;;;;13.57;3.08;;;;;;;;;;5033264;28;20070;-76
2022/08/13 06:23:41;;;;;;;19.42;3.70;;;;;;;;;;4973819;28;20027;-77
2022/08/13 06:26:08;;;;;;;13.32;3.45;;;;;;;;;;4955859;28;20066;-76
2022/08/13 06:28:34;;;;;;;15.48;3.83;;;;;;;;;;4970021;28;20019;-76
2022/08/13 06:31:03;;;;;;;15.00;3.28;;;;;;;;;;4950984;28;20035;-76
2022/08/13 06:33:30;;;;;;;14.68;3.50;;;;;;;;;;4946461;28;20027;-77
2022/08/13 06:35:58;;;;;;;14.68;3.35;;;;;;;;;;4964257;28;20031;-77
2022/08/13 06:38:29;;;;;;;16.80;3.22;;;;;;;;;;4969414;28;20023;-78
2022/08/13 06:40:59;;;;;;;8.73;2.67;;;;;;;;;;4963291;28;20031;-76
2022/08/13 06:43:26;;;;;;;8.20;2.85;;;;;;;;;;4948647;28;20037;-75
2022/08/13 06:45:52;;;;;;;11.63;2.90;;;;;;;;;;4966071;28;20027;-76
2022/08/13 06:48:18;;;;;;;7.82;2.60;;;;;;;;;;4951832;28;20034;-76
2022/08/13 06:50:44;;;;;;;4.55;2.90;;;;;;;;;;4954425;28;20027;-76
2022/08/13 06:53:11;;;;;;;7.35;2.60;;;;;;;;;;4950164;28;20225;-76
2022/08/13 06:55:39;;;;;;;14.23;2.90;;;;;;;;;;4964947;28;20462;-77
2022/08/13 06:58:08;;;;;;;11.98;2.75;;;;;;;;;;4971904;28;20019;-76
2022/08/13 07:00:35;;;;;;;31.00;3.80;;;;;;;;;;4964190;28;20502;-76
2022/08/13 07:03:02;;;;;;;24.10;3.50;;;;;;;;;;4966860;28;20031;-76
2022/08/13 07:05:35;;;;;;;10.93;2.58;;;;;;;;;;4948812;28;20047;-76
2022/08/13 07:08:04;;;;;;;15.93;3.10;;;;;;;;;;4964982;28;20027;-75
2022/08/13 07:10:30;;;;;;;6.43;2.78;;;;;;;;;;4965305;28;20081;-76
2022/08/13 07:12:57;;;;;;;12.68;2.80;;;;;;;;;;4951620;28;20092;-76
2022/08/13 07:15:23;;;;;;;10.55;3.28;;;;;;;;;;5031557;28;20273;-76
2022/08/13 07:17:50;;;;;;;10.40;2.63;;;;;;;;;;4962068;28;20427;-76
2022/08/13 07:20:17;;;;;;;5.63;2.50;;;;;;;;;;4961694;28;20392;-76
2022/08/13 07:22:43;;;;;;;18.25;4.13;;;;;;;;;;4963401;28;20031;-76
2022/08/13 07:25:10;;;;;;;6.78;2.42;;;;;;;;;;4966880;28;20030;-76
2022/08/13 07:27:40;;;;;;;5.50;2.70;;;;;;;;;;4967720;28;20038;-76
2022/08/13 07:30:06;;;;;;;5.55;2.30;;;;;;;;;;4968128;28;20046;-76
2022/08/13 07:32:36;;;;;;;8.93;2.65;;;;;;;;;;4951182;28;20551;-77
2022/08/13 07:35:04;;;;;;;16.50;2.90;;;;;;;;;;4968628;28;20153;-76
2022/08/13 07:37:30;;;;;;;7.38;2.33;;;;;;;;;;4968590;28;20045;-77
2022/08/13 07:39:58;;;;;;;4.88;2.65;;;;;;;;;;4972215;28;20042;-76
2022/08/13 07:42:25;;;;;;;6.90;2.38;;;;;;;;;;4950674;28;20034;-76
2022/08/13 07:44:52;;;;;;;8.00;2.63;;;;;;;;;;4965387;28;20423;-76
2022/08/13 07:47:20;;;;;;;7.22;2.38;;;;;;;;;;4951300;28;20035;-76
2022/08/13 07:49:46;;;;;;;8.48;2.42;;;;;;;;;;4957253;28;20046;-76
2022/08/13 07:52:15;;;;;;;8.52;2.40;;;;;;;;;;4966061;28;20027;-76
2022/08/13 07:54:45;;;;;;;4.60;2.13;;;;;;;;;;4966473;28;20508;-76
2022/08/13 07:57:11;;;;;;;8.60;2.42;;;;;;;;;;4959118;28;20028;-76
2022/08/13 07:59:37;;;;;;;6.22;2.47;;;;;;;;;;4955959;28;20066;-76
2022/08/13 08:02:07;;;;;;;9.93;2.20;;;;;;;;;;4964862;28;20031;-77
2022/08/13 08:04:34;;;;;;;6.18;2.22;;;;;;;;;;4967386;28;20027;-77
2022/08/13 08:07:01;;;;;;;6.05;2.35;;;;;;;;;;4985709;28;20046;-76
2022/08/13 08:09:29;;;;;;;9.07;2.60;;;;;;;;;;4967576;28;20027;-76
2022/08/13 08:14:41;;;;;;;8.85;2.25;;;;;;;;;;4967807;28;20045;-76
2022/08/13 08:17:10;;;;;;;6.82;2.15;;;;;;;;;;4966871;28;20483;-77
2022/08/13 08:19:40;;;;;;;6.78;2.10;;;;;;;;;;4950391;28;20503;-76
2022/08/13 08:22:07;;;;;;;8.80;2.10;;;;;;;;;;4950133;28;20435;-77
2022/08/13 08:24:34;;;;;;;11.00;2.30;;;;;;;;;;4965348;28;20014;-75
2022/08/13 08:27:01;;;;;;;4.97;2.25;;;;;;;;;;4965721;28;20031;-76
2022/08/13 08:29:28;;;;;;;9.98;1.98;;;;;;;;;;4967724;28;20039;-77
2022/08/13 08:31:54;;;;;;;5.25;1.95;;;;;;;;;;4965758;28;20081;-76
2022/08/13 08:34:20;;;;;;;11.68;2.25;;;;;;;;;;4956379;28;20042;-80
2022/08/13 08:36:46;;;;;;;5.65;1.90;;;;;;;;;;4952708;28;20446;-76
2022/08/13 08:44:43;;;;;;;9.32;2.08;;;;;;;;;;4966819;28;20050;-87
2022/08/13 08:47:10;;;;;;;6.50;2.00;;;;;;;;;;4953719;28;20120;-86
2022/08/13 08:49:37;;;;;;;4.80;1.98;;;;;;;;;;4969935;28;20141;-88
2022/08/13 08:52:04;;;;;;;8.75;1.80;;;;;;;;;;4970034;28;20038;-88
2022/08/13 08:54:30;;;;;;;3.38;1.80;;;;;;;;;;4954125;28;20051;-87
2022/08/13 08:56:57;;;;;;;8.00;1.80;;;;;;;;;;4953829;28;20042;-87
2022/08/13 08:59:24;;;;;;;5.90;1.88;;;;;;;;;;4970706;28;20110;-89
2022/08/13 09:01:52;;;;;;;8.93;1.73;;;;;;;;;;4966114;28;20027;-86
2022/08/13 09:04:20;;;;;;;5.18;1.73;;;;;;;;;;4963981;28;20445;-88
2022/08/13 09:06:48;;;;;;;3.38;1.70;;;;;;;;;;4971331;28;20073;-87
2022/08/13 09:09:14;;;;;;;26.15;1.90;;;;;;;;;;4970540;28;20154;-87
2022/08/13 09:11:40;;;;;;;7.90;1.75;;;;;;;;;;4968996;28;20469;-87
2022/08/13 09:14:07;;;;;;;5.28;1.70;;;;;;;;;;4976436;28;20058;-87
2022/08/13 09:16:34;;;;;;;11.77;2.22;;;;;;;;;;4952947;28;20450;-87
2022/08/13 09:19:00;;;;;;;6.72;1.83;;;;;;;;;;4970429;28;20560;-76
2022/08/13 09:21:26;;;;;;;17.10;1.98;;;;;;;;;;4963979;28;20504;-77
2022/08/13 09:23:52;;;;;;;8.30;1.88;;;;;;;;;;4968648;28;20055;-76
2022/08/13 09:26:20;;;;;;;4.57;1.50;;;;;;;;;;5036692;28;20040;-76
2022/08/13 09:28:46;;;;;;;9.70;2.00;;;;;;;;;;4953019;28;20404;-76
2022/08/13 09:31:12;;;;;;;5.07;1.38;;;;;;;;;;4966681;28;20035;-76
2022/08/13 09:33:39;;;;;;;8.30;2.15;;;;;;;;;;4969741;28;20459;-76
2022/08/13 09:36:11;;;;;;;10.50;1.70;;;;;;;;;;4936526;28;20102;-76
2022/08/13 09:38:37;;;;;;;9.65;1.70;;;;;;;;;;4957226;28;20089;-76
2022/08/13 09:41:03;;;;;;;5.57;1.48;;;;;;;;;;5027604;28;20026;-76
2022/08/13 09:43:36;;;;;;;9.27;1.85;;;;;;;;;;4952162;28;20103;-76
2022/08/13 09:46:04;;;;;;;4.18;1.45;;;;;;;;;;4970594;28;20023;-76
2022/08/13 09:48:30;;;;;;;8.25;1.98;;;;;;;;;;4969729;28;20031;-76
2022/08/13 09:50:56;;;;;;;14.38;1.77;;;;;;;;;;4954101;28;20515;-76
2022/08/13 09:53:25;;;;;;;10.15;1.80;;;;;;;;;;4952428;28;20042;-76
2022/08/13 09:55:52;;;;;;;9.10;1.70;;;;;;;;;;4952670;28;20722;-76
2022/08/13 09:58:18;;;;;;;2.58;1.40;;;;;;;;;;4952822;28;20053;-76
2022/08/13 10:00:47;;;;;;;6.00;1.40;;;;;;;;;;4969832;28;20109;-76
2022/08/13 10:03:17;;;;;;;17.60;2.03;;;;;;;;;;4968198;28;20106;-76
2022/08/13 10:05:44;;;;;;;2.10;1.30;;;;;;;;;;4969673;28;20084;-76
2022/08/13 10:08:15;;;;;;;11.13;1.60;;;;;;;;;;5035460;28;20039;-76
2022/08/13 10:10:42;;;;;;;5.00;1.20;;;;;;;;;;4967761;28;20030;-75
2022/08/13 10:13:08;;;;;;;8.77;1.50;;;;;;;;;;4968145;28;20096;-76
2022/08/13 10:15:34;;;;;;;10.27;1.70;;;;;;;;;;4951839;28;20454;-76
2022/08/13 10:18:02;;;;;;;5.38;1.55;;;;;;;;;;4969049;28;20412;-76
2022/08/13 10:20:29;;;;;;;6.47;1.50;;;;;;;;;;4966509;28;20121;-76
2022/08/13 10:22:56;;;;;;;7.18;1.58;;;;;;;;;;4950063;28;20053;-75
2022/08/13 10:25:23;;;;;;;10.27;1.67;;;;;;;;;;4958202;28;20015;-87
2022/08/13 10:27:49;;;;;;;3.95;1.55;;;;;;;;;;4958734;28;20027;-86
2022/08/13 10:30:15;;;;;;;4.35;1.73;;;;;;;;;;4951264;28;20031;-87
2022/08/13 10:32:41;;;;;;;6.72;1.50;;;;;;;;;;4969409;28;20552;-86
2022/08/13 10:35:09;;;;;;;13.68;1.70;;;;;;;;;;4965903;28;20043;-85
2022/08/13 10:37:42;;;;;;;6.50;1.58;;;;;;;;;;4970424;28;20078;-87
2022/08/13 10:40:09;;;;;;;10.65;1.60;;;;;;;;;;4952516;28;20037;-88
2022/08/13 10:42:36;;;;;;;7.32;1.63;;;;;;;;;;4952267;28;20054;-87
2022/08/13 10:45:02;;;;;;;3.45;1.50;;;;;;;;;;4969376;28;20031;-86
2022/08/13 10:47:28;;;;;;;12.32;1.80;;;;;;;;;;4951723;28;20409;-88
2022/08/13 10:49:54;;;;;;;11.30;1.52;;;;;;;;;;4968605;28;20129;-87
2022/08/13 10:52:25;;;;;;;6.22;1.33;;;;;;;;;;4952931;28;20054;-87
2022/08/13 10:54:53;;;;;;;9.13;1.90;;;;;;;;;;4950482;28;20027;-77
2022/08/13 10:57:19;;;;;;;5.07;1.52;;;;;;;;;;4968940;28;20395;-86
2022/08/13 10:59:45;;;;;;;8.15;1.67;;;;;;;;;;4967224;28;20035;-85
2022/08/13 11:02:11;;;;;;;12.90;2.10;;;;;;;;;;4968490;28;20059;-84
2022/08/13 11:04:38;;;;;;;10.15;1.55;;;;;;;;;;4952274;28;20464;-86
2022/08/13 11:07:05;;;;;;;10.50;1.95;;;;;;;;;;4967399;28;20042;-85
2022/08/13 11:09:31;;;;;;;8.85;1.50;;;;;;;;;;4964548;28;20031;-86
2022/08/13 11:11:58;;;;;;;6.78;1.30;;;;;;;;;;4968564;28;20038;-85
2022/08/13 11:14:25;;;;;;;6.22;1.88;;;;;;;;;;4968797;28;20049;-85
2022/08/13 11:19:25;;;;;;;4.65;1.20;;;;;;;;;;4966664;28;20042;-85
2022/08/13 11:21:51;;;;;;;6.28;1.50;;;;;;;;;;4952388;28;20113;-75
2022/08/13 11:24:18;;;;;;;6.70;1.40;;;;;;;;;;4952510;28;20031;-76
2022/08/13 11:26:45;;;;;;;3.47;1.42;;;;;;;;;;4955914;28;20055;-76
2022/08/13 11:29:11;;;;;;;6.95;1.40;;;;;;;;;;4968464;28;20029;-86
2022/08/13 11:31:37;;;;;;;3.90;1.25;;;;;;;;;;4971169;28;20035;-86
2022/08/13 11:34:03;;;;;;;6.05;1.40;;;;;;;;;;4969093;28;20075;-86
2022/08/13 11:36:30;;;;;;;6.00;1.42;;;;;;;;;;4966256;28;20480;-85
2022/08/13 11:38:58;;;;;;;5.63;1.40;;;;;;;;;;4950425;28;20114;-75
2022/08/13 11:41:24;;;;;;;10.70;1.25;;;;;;;;;;4964563;28;20034;-76
2022/08/13 11:43:51;;;;;;;3.60;1.05;;;;;;;;;;5032603;28;20083;-75
2022/08/13 11:46:17;;;;;;;2.53;0.90;;;;;;;;;;5033874;28;20488;-75
2022/08/13 11:48:44;;;;;;;8.73;1.58;;;;;;;;;;4968855;28;20505;-76
2022/08/13 11:51:10;;;;;;;5.93;1.30;;;;;;;;;;4961690;28;20050;-84
2022/08/13 11:53:36;;;;;;;2.97;1.00;;;;;;;;;;4949785;28;20046;-84
2022/08/13 11:56:02;;;;;;;5.97;1.17;;;;;;;;;;4964708;28;20037;-85
2022/08/13 11:58:28;;;;;;;9.35;1.60;;;;;;;;;;4933121;28;20031;-86
2022/08/13 12:00:54;;;;;;;8.77;1.35;;;;;;;;;;4957391;28;20033;-85
2022/08/13 12:03:21;;;;;;;5.32;1.20;;;;;;;;;;4954633;28;20030;-87
2022/08/13 12:05:47;;;;;;;3.22;1.15;;;;;;;;;;4967124;28;20054;-84
2022/08/13 12:08:15;;;;;;;5.40;1.70;;;;;;;;;;4951819;28;20345;-84
2022/08/13 12:10:41;;;;;;;7.15;1.60;;;;;;;;;;4968079;28;20026;-85
2022/08/13 12:13:07;;;;;;;4.50;1.27;;;;;;;;;;4953680;28;20071;-84
2022/08/13 12:15:33;;;;;;;2.65;1.27;;;;;;;;;;4965559;28;20054;-84
2022/08/13 12:17:59;;;;;;;7.30;1.40;;;;;;;;;;4954770;28;20026;-85
2022/08/13 12:20:25;;;;;;;5.20;1.55;;;;;;;;;;4953908;28;20470;-85
2022/08/13 12:22:52;;;;;;;4.40;1.63;;;;;;;;;;5038003;28;20027;-85
2022/08/13 12:25:19;;;;;;;10.60;2.28;;;;;;;;;;4960684;28;20111;-86
2022/08/13 12:27:45;;;;;;;7.13;1.30;;;;;;;;;;5032414;28;20037;-85
2022/08/13 12:30:11;;;;;;;2.00;1.33;;;;;;;;;;4963752;28;20035;-86
2022/08/13 12:32:37;;;;;;;2.35;1.17;;;;;;;;;;4968732;28;20138;-87
2022/08/13 12:35:03;;;;;;;5.38;1.13;;;;;;;;;;4968771;28;20118;-86
2022/08/13 12:37:29;;;;;;;8.82;1.40;;;;;;;;;;5031877;28;20406;-87
2022/08/13 12:39:56;;;;;;;5.72;1.50;;;;;;;;;;4970860;28;20038;-86
2022/08/13 12:42:23;;;;;;;3.28;1.20;;;;;;;;;;4969007;28;20023;-87
2022/08/13 12:44:49;;;;;;;7.93;1.48;;;;;;;;;;4971272;28;20022;-86
2022/08/13 12:47:15;;;;;;;3.50;1.70;;;;;;;;;;4971091;28;20498;-86
2022/08/13 12:49:41;;;;;;;6.35;1.40;;;;;;;;;;4968010;28;20073;-85
2022/08/13 12:52:07;;;;;;;5.95;1.20;;;;;;;;;;4969798;28;20455;-88
2022/08/13 12:54:33;;;;;;;5.20;1.27;;;;;;;;;;4970868;28;20083;-87
2022/08/13 12:57:00;;;;;;;4.55;1.35;;;;;;;;;;4950609;28;20043;-86
2022/08/13 12:59:26;;;;;;;1.80;1.23;;;;;;;;;;4969647;28;20431;-85
2022/08/13 13:01:53;;;;;;;2.97;1.38;;;;;;;;;;4969647;28;20388;-87
2022/08/13 13:04:22;;;;;;;3.20;1.13;;;;;;;;;;4953987;28;20027;-86
2022/08/13 13:06:52;;;;;;;11.98;1.30;;;;;;;;;;4969336;28;20062;-85
2022/08/13 13:09:18;;;;;;;4.20;1.30;;;;;;;;;;4952338;28;20402;-86
2022/08/13 13:11:45;;;;;;;3.28;1.23;;;;;;;;;;4966590;28;20054;-86
2022/08/13 13:14:11;;;;;;;8.85;1.73;;;;;;;;;;4971042;28;20115;-86
2022/08/13 13:16:38;;;;;;;2.08;1.30;;;;;;;;;;4970169;28;20112;-87
2022/08/13 13:19:05;;;;;;;4.20;1.33;;;;;;;;;;4970435;28;20395;-86
2022/08/13 13:21:33;;;;;;;4.88;1.50;;;;;;;;;;4967818;28;20031;-85
2022/08/13 13:24:00;;;;;;;3.72;1.23;;;;;;;;;;4954772;28;20039;-87
2022/08/13 13:26:26;;;;;;;3.28;1.20;;;;;;;;;;4970128;28;20027;-86
2022/08/13 13:28:54;;;;;;;4.60;1.45;;;;;;;;;;4970593;28;20049;-86
2022/08/13 13:31:20;;;;;;;8.43;1.27;;;;;;;;;;4968901;28;20050;-85
2022/08/13 13:33:46;;;;;;;5.72;1.30;;;;;;;;;;4981165;28;20121;-86
2022/08/13 13:36:13;;;;;;;6.80;1.50;;;;;;;;;;4965043;28;20038;-86
2022/08/13 13:38:40;;;;;;;6.35;1.20;;;;;;;;;;4970255;28;20023;-86
2022/08/13 13:41:07;;;;;;;6.15;1.75;;;;;;;;;;4967329;28;20030;-86
2022/08/13 13:43:34;;;;;;;1.33;0.95;;;;;;;;;;4953125;28;20391;-86
2022/08/13 13:46:00;;;;;;;4.07;1.05;;;;;;;;;;4983472;28;20100;-87
2022/08/13 13:48:27;;;;;;;6.32;1.50;;;;;;;;;;4970390;28;20050;-86
2022/08/13 13:50:55;;;;;;;8.38;1.30;;;;;;;;;;4966506;28;20096;-86
2022/08/13 13:53:21;;;;;;;5.32;1.40;;;;;;;;;;4970136;28;20027;-85
2022/08/13 13:55:47;;;;;;;5.63;1.30;;;;;;;;;;4968642;28;20629;-85
2022/08/13 13:58:18;;;;;;;3.42;1.42;;;;;;;;;;4968767;28;20103;-86
2022/08/13 14:00:44;;;;;;;3.35;1.75;;;;;;;;;;4967542;28;20126;-86
2022/08/13 14:03:10;;;;;;;5.47;1.30;;;;;;;;;;4970473;28;20510;-86
2022/08/13 14:05:38;;;;;;;5.70;1.35;;;;;;;;;;4947571;28;20106;-86
2022/08/13 14:08:04;;;;;;;3.28;1.50;;;;;;;;;;4959270;28;20019;-88
2022/08/13 14:10:31;;;;;;;12.10;1.10;;;;;;;;;;4956200;28;20066;-88
2022/08/13 14:12:58;;;;;;;3.13;1.20;;;;;;;;;;4953097;28;20030;-86
2022/08/13 14:15:24;;;;;;;7.95;1.35;;;;;;;;;;4969197;28;20049;-91
2022/08/13 14:17:54;;;;;;;7.90;1.38;;;;;;;;;;4974141;28;20041;-87
2022/08/13 14:20:22;;;;;;;4.30;1.00;;;;;;;;;;4969405;28;20054;-85
2022/08/13 14:22:48;;;;;;;2.08;1.35;;;;;;;;;;4952279;28;20026;-85
2022/08/13 14:25:17;;;;;;;3.38;1.50;;;;;;;;;;4953426;28;20022;-85
2022/08/13 14:27:46;;;;;;;5.05;1.40;;;;;;;;;;4969399;28;20383;-87
2022/08/13 14:30:12;;;;;;;3.10;1.17;;;;;;;;;;4968784;28;20084;-88
2022/08/13 14:32:39;;;;;;;1.85;1.20;;;;;;;;;;4968514;28;20035;-87
2022/08/13 14:35:10;;;;;;;4.05;1.20;;;;;;;;;;4952312;28;20126;-87
2022/08/13 14:37:37;;;;;;;7.53;1.38;;;;;;;;;;4968836;28;20110;-77
2022/08/13 14:40:07;;;;;;;2.97;1.27;;;;;;;;;;4948926;28;20451;-76
2022/08/13 14:42:41;;;;;;;7.05;1.38;;;;;;;;;;4964597;28;20031;-76
2022/08/13 14:47:54;;;;;;;4.57;1.25;;;;;;;;;;4966497;28;20038;-87
2022/08/13 14:50:21;;;;;;;3.67;1.20;;;;;;;;;;4968944;28;20037;-87
2022/08/13 14:52:47;;;;;;;3.22;1.35;;;;;;;;;;4952840;28;20113;-76
2022/08/13 14:55:14;;;;;;;5.10;1.60;;;;;;;;;;4969567;28;20027;-77
2022/08/13 14:57:40;;;;;;;10.43;1.80;;;;;;;;;;4965577;28;20038;-77
2022/08/13 15:00:08;;;;;;;3.92;1.15;;;;;;;;;;4953093;28;20031;-87
2022/08/13 15:02:36;;;;;;;3.92;1.40;;;;;;;;;;4952303;28;20160;-87